Brentwood, New Hampshire
Current Conditions -  °F | °C
As of 7:58 PM on Thursday 18 Dec 2014 (Local Time) from KPSM Reporting Station
Broken Clouds Broken Clouds  
Wind Chill: -1°   Ceiling: 4800
Heat Index:   Visibility: 10mi
Dew Point: -3°   Wind: 10mph
Humidity: 65%   Direction: 290°WNW
Pressure: 29.82"   Gusts: 18mph
Location:  42.9832°N, 70.9915°W
Report Text: KPSM 190058Z 29009G16KT 10SM FEW030 BKN048 03/M03 A2982 RMK AO2A SLP102 T00261034
Loading
Personal Weather Stations






























Interactive Weather Map New forecast layout! Learn more

10-Day Weather Forecast

Advertisements
Track Severe Weather on mobile